Montreal-Ouest, Canada
Current Conditions -  °F | °C
As of 3:00 PM on Friday 24 Oct 2014 (Local Time) from CYUL Reporting Station
Broken Clouds Broken Clouds  
Wind Chill: 52°   Ceiling: 4000
Heat Index: 52°   Visibility: 15mi
Dew Point: 37°   Wind: 0mph
Humidity: 58%   Direction: NA
Pressure: 29.84"   Gusts: NA
Location:  45.45°N, 73.65°W
Report Text: CYUL 241900Z 00000KT 15SM BKN040 11/03 A2984 RMK SC7 SLP106
Loading
Personal Weather Stations






























Interactive Weather Map
Tropical Storm Tracking
New forecast layout! Learn more

10-Day Weather Forecast

Advertisements
Track Severe Weather on mobile